sensor_id;sensor_type;location;lat;lon;timestamp;P1;durP1;ratioP1;P2;durP2;ratioP2
14892;SDS011;7538;53.626;9.906;2023-03-17T00:01:20;3.03;;;2.17;;
14892;SDS011;7538;53.626;9.906;2023-03-17T00:03:48;3.90;;;1.80;;
14892;SDS011;7538;53.626;9.906;2023-03-17T00:06:16;4.60;;;1.80;;
14892;SDS011;7538;53.626;9.906;2023-03-17T00:08:48;1.90;;;1.50;;
14892;SDS011;7538;53.626;9.906;2023-03-17T00:11:17;4.37;;;1.60;;
14892;SDS011;7538;53.626;9.906;2023-03-17T00:13:43;2.80;;;1.93;;
14892;SDS011;7538;53.626;9.906;2023-03-17T00:16:12;1.60;;;1.50;;
14892;SDS011;7538;53.626;9.906;2023-03-17T00:18:41;1.50;;;1.40;;
14892;SDS011;7538;53.626;9.906;2023-03-17T00:21:09;2.27;;;1.53;;
14892;SDS011;7538;53.626;9.906;2023-03-17T00:23:38;3.67;;;1.47;;
14892;SDS011;7538;53.626;9.906;2023-03-17T00:26:06;5.27;;;2.27;;
14892;SDS011;7538;53.626;9.906;2023-03-17T00:28:34;4.10;;;2.00;;
14892;SDS011;7538;53.626;9.906;2023-03-17T00:31:01;2.53;;;1.80;;
14892;SDS011;7538;53.626;9.906;2023-03-17T00:33:38;3.87;;;1.80;;
14892;SDS011;7538;53.626;9.906;2023-03-17T00:36:08;3.57;;;1.80;;
14892;SDS011;7538;53.626;9.906;2023-03-17T00:38:38;3.13;;;1.87;;
14892;SDS011;7538;53.626;9.906;2023-03-17T00:41:06;3.83;;;1.70;;
14892;SDS011;7538;53.626;9.906;2023-03-17T00:43:35;3.03;;;1.67;;
14892;SDS011;7538;53.626;9.906;2023-03-17T00:46:04;2.87;;;1.70;;
14892;SDS011;7538;53.626;9.906;2023-03-17T00:48:37;3.80;;;2.00;;
14892;SDS011;7538;53.626;9.906;2023-03-17T00:51:04;4.07;;;1.90;;
14892;SDS011;7538;53.626;9.906;2023-03-17T00:53:31;4.17;;;2.10;;
14892;SDS011;7538;53.626;9.906;2023-03-17T00:55:58;3.23;;;1.67;;
14892;SDS011;7538;53.626;9.906;2023-03-17T00:58:26;2.67;;;1.90;;
14892;SDS011;7538;53.626;9.906;2023-03-17T01:00:56;2.93;;;2.03;;
14892;SDS011;7538;53.626;9.906;2023-03-17T01:03:23;3.37;;;1.70;;
14892;SDS011;7538;53.626;9.906;2023-03-17T01:05:52;3.90;;;1.77;;
14892;SDS011;7538;53.626;9.906;2023-03-17T01:08:21;1.80;;;1.50;;
14892;SDS011;7538;53.626;9.906;2023-03-17T01:10:49;3.47;;;1.80;;
14892;SDS011;7538;53.626;9.906;2023-03-17T01:13:16;2.67;;;1.80;;
14892;SDS011;7538;53.626;9.906;2023-03-17T01:15:44;4.13;;;2.07;;
14892;SDS011;7538;53.626;9.906;2023-03-17T01:18:14;2.90;;;2.00;;
14892;SDS011;7538;53.626;9.906;2023-03-17T01:20:43;3.03;;;2.13;;
14892;SDS011;7538;53.626;9.906;2023-03-17T01:23:11;2.43;;;2.00;;
14892;SDS011;7538;53.626;9.906;2023-03-17T01:25:38;3.20;;;1.90;;
14892;SDS011;7538;53.626;9.906;2023-03-17T01:28:07;3.47;;;2.10;;
14892;SDS011;7538;53.626;9.906;2023-03-17T01:30:38;4.43;;;2.10;;
14892;SDS011;7538;53.626;9.906;2023-03-17T01:33:07;4.03;;;1.80;;
14892;SDS011;7538;53.626;9.906;2023-03-17T01:35:37;2.70;;;1.77;;
14892;SDS011;7538;53.626;9.906;2023-03-17T01:38:05;1.77;;;1.50;;
14892;SDS011;7538;53.626;9.906;2023-03-17T01:40:33;5.10;;;1.80;;
14892;SDS011;7538;53.626;9.906;2023-03-17T01:43:12;2.67;;;1.70;;
14892;SDS011;7538;53.626;9.906;2023-03-17T01:48:39;2.80;;;1.67;;
14892;SDS011;7538;53.626;9.906;2023-03-17T01:51:10;3.07;;;2.00;;
14892;SDS011;7538;53.626;9.906;2023-03-17T01:53:40;3.93;;;2.00;;
14892;SDS011;7538;53.626;9.906;2023-03-17T01:56:11;3.27;;;2.10;;
14892;SDS011;7538;53.626;9.906;2023-03-17T01:58:39;2.20;;;2.00;;
14892;SDS011;7538;53.626;9.906;2023-03-17T02:01:07;4.37;;;1.90;;
14892;SDS011;7538;53.626;9.906;2023-03-17T02:03:34;2.63;;;2.00;;
14892;SDS011;7538;53.626;9.906;2023-03-17T02:06:01;2.50;;;1.70;;
14892;SDS011;7538;53.626;9.906;2023-03-17T02:08:30;4.30;;;1.87;;
14892;SDS011;7538;53.626;9.906;2023-03-17T02:10:57;3.17;;;1.93;;
14892;SDS011;7538;53.626;9.906;2023-03-17T02:13:26;3.30;;;2.20;;
14892;SDS011;7538;53.626;9.906;2023-03-17T02:15:53;4.87;;;2.37;;
14892;SDS011;7538;53.626;9.906;2023-03-17T02:18:21;2.53;;;2.10;;
14892;SDS011;7538;53.626;9.906;2023-03-17T02:23:56;2.83;;;2.00;;
14892;SDS011;7538;53.626;9.906;2023-03-17T02:26:25;2.53;;;1.83;;
14892;SDS011;7538;53.626;9.906;2023-03-17T02:28:55;4.03;;;1.77;;
14892;SDS011;7538;53.626;9.906;2023-03-17T02:31:22;3.17;;;1.80;;
14892;SDS011;7538;53.626;9.906;2023-03-17T02:33:50;3.73;;;2.00;;
14892;SDS011;7538;53.626;9.906;2023-03-17T02:36:17;3.63;;;2.40;;
14892;SDS011;7538;53.626;9.906;2023-03-17T02:38:44;2.57;;;2.00;;
14892;SDS011;7538;53.626;9.906;2023-03-17T02:41:12;2.70;;;2.20;;
14892;SDS011;7538;53.626;9.906;2023-03-17T02:43:39;2.83;;;2.43;;
14892;SDS011;7538;53.626;9.906;2023-03-17T02:46:06;3.13;;;2.40;;
14892;SDS011;7538;53.626;9.906;2023-03-17T02:48:34;2.30;;;2.10;;
14892;SDS011;7538;53.626;9.906;2023-03-17T02:51:02;4.73;;;2.10;;
14892;SDS011;7538;53.626;9.906;2023-03-17T02:53:29;4.47;;;2.60;;
14892;SDS011;7538;53.626;9.906;2023-03-17T02:55:56;5.13;;;2.37;;
14892;SDS011;7538;53.626;9.906;2023-03-17T02:58:24;2.93;;;2.27;;
14892;SDS011;7538;53.626;9.906;2023-03-17T03:00:51;3.73;;;2.50;;
14892;SDS011;7538;53.626;9.906;2023-03-17T03:03:18;4.37;;;2.33;;
14892;SDS011;7538;53.626;9.906;2023-03-17T03:05:45;3.70;;;2.53;;
14892;SDS011;7538;53.626;9.906;2023-03-17T03:08:12;3.13;;;2.43;;
14892;SDS011;7538;53.626;9.906;2023-03-17T03:10:40;4.37;;;2.57;;
14892;SDS011;7538;53.626;9.906;2023-03-17T03:13:07;3.30;;;2.40;;
14892;SDS011;7538;53.626;9.906;2023-03-17T03:15:35;3.50;;;2.50;;
14892;SDS011;7538;53.626;9.906;2023-03-17T03:18:05;3.30;;;2.57;;
14892;SDS011;7538;53.626;9.906;2023-03-17T03:20:32;3.97;;;2.70;;
14892;SDS011;7538;53.626;9.906;2023-03-17T03:22:58;3.47;;;2.53;;
14892;SDS011;7538;53.626;9.906;2023-03-17T03:25:25;5.13;;;2.63;;
14892;SDS011;7538;53.626;9.906;2023-03-17T03:27:52;3.77;;;2.63;;
14892;SDS011;7538;53.626;9.906;2023-03-17T03:30:19;5.63;;;2.50;;
14892;SDS011;7538;53.626;9.906;2023-03-17T03:32:47;4.03;;;2.57;;
14892;SDS011;7538;53.626;9.906;2023-03-17T03:35:14;4.23;;;2.70;;
14892;SDS011;7538;53.626;9.906;2023-03-17T03:37:41;3.73;;;2.37;;
14892;SDS011;7538;53.626;9.906;2023-03-17T03:40:08;4.80;;;2.50;;
14892;SDS011;7538;53.626;9.906;2023-03-17T03:42:36;5.13;;;2.47;;
14892;SDS011;7538;53.626;9.906;2023-03-17T03:45:03;4.33;;;3.23;;
14892;SDS011;7538;53.626;9.906;2023-03-17T03:47:31;3.63;;;2.87;;
14892;SDS011;7538;53.626;9.906;2023-03-17T03:49:59;3.50;;;2.70;;
14892;SDS011;7538;53.626;9.906;2023-03-17T03:52:26;4.17;;;3.13;;
14892;SDS011;7538;53.626;9.906;2023-03-17T03:54:52;5.73;;;2.93;;
14892;SDS011;7538;53.626;9.906;2023-03-17T03:57:19;4.47;;;3.07;;
14892;SDS011;7538;53.626;9.906;2023-03-17T03:59:46;4.67;;;3.10;;
14892;SDS011;7538;53.626;9.906;2023-03-17T04:02:13;4.23;;;3.17;;
14892;SDS011;7538;53.626;9.906;2023-03-17T04:04:41;4.83;;;2.90;;
14892;SDS011;7538;53.626;9.906;2023-03-17T04:07:09;4.33;;;3.03;;
14892;SDS011;7538;53.626;9.906;2023-03-17T04:09:36;5.80;;;2.87;;
14892;SDS011;7538;53.626;9.906;2023-03-17T04:12:04;4.00;;;3.00;;
14892;SDS011;7538;53.626;9.906;2023-03-17T04:14:31;3.50;;;3.00;;
14892;SDS011;7538;53.626;9.906;2023-03-17T04:16:58;8.40;;;2.87;;
14892;SDS011;7538;53.626;9.906;2023-03-17T04:19:25;6.97;;;3.23;;
14892;SDS011;7538;53.626;9.906;2023-03-17T04:21:52;5.33;;;2.80;;
14892;SDS011;7538;53.626;9.906;2023-03-17T04:24:21;5.50;;;3.17;;
14892;SDS011;7538;53.626;9.906;2023-03-17T04:26:48;4.70;;;2.90;;
14892;SDS011;7538;53.626;9.906;2023-03-17T04:29:15;4.20;;;3.07;;
14892;SDS011;7538;53.626;9.906;2023-03-17T04:31:43;5.43;;;3.40;;
14892;SDS011;7538;53.626;9.906;2023-03-17T04:34:11;4.63;;;3.40;;
14892;SDS011;7538;53.626;9.906;2023-03-17T04:36:40;3.87;;;3.07;;
14892;SDS011;7538;53.626;9.906;2023-03-17T04:39:08;4.23;;;3.33;;
14892;SDS011;7538;53.626;9.906;2023-03-17T04:41:36;2.93;;;2.63;;
14892;SDS011;7538;53.626;9.906;2023-03-17T04:44:03;5.27;;;3.13;;
14892;SDS011;7538;53.626;9.906;2023-03-17T04:46:30;5.77;;;3.40;;
14892;SDS011;7538;53.626;9.906;2023-03-17T04:48:58;4.60;;;3.60;;
14892;SDS011;7538;53.626;9.906;2023-03-17T04:51:25;4.60;;;3.30;;
14892;SDS011;7538;53.626;9.906;2023-03-17T04:53:52;5.77;;;3.17;;
14892;SDS011;7538;53.626;9.906;2023-03-17T04:56:19;3.77;;;3.33;;
14892;SDS011;7538;53.626;9.906;2023-03-17T04:58:47;5.47;;;3.60;;
14892;SDS011;7538;53.626;9.906;2023-03-17T05:01:14;4.60;;;3.10;;
14892;SDS011;7538;53.626;9.906;2023-03-17T05:03:41;7.20;;;3.23;;
14892;SDS011;7538;53.626;9.906;2023-03-17T05:06:08;5.77;;;3.47;;
14892;SDS011;7538;53.626;9.906;2023-03-17T05:08:35;4.90;;;3.30;;
14892;SDS011;7538;53.626;9.906;2023-03-17T05:11:02;4.83;;;3.30;;
14892;SDS011;7538;53.626;9.906;2023-03-17T05:13:28;5.07;;;3.27;;
14892;SDS011;7538;53.626;9.906;2023-03-17T05:15:57;5.27;;;3.33;;
14892;SDS011;7538;53.626;9.906;2023-03-17T05:18:24;4.90;;;3.23;;
14892;SDS011;7538;53.626;9.906;2023-03-17T05:20:51;4.93;;;3.37;;
14892;SDS011;7538;53.626;9.906;2023-03-17T05:23:18;4.53;;;3.37;;
14892;SDS011;7538;53.626;9.906;2023-03-17T05:25:46;5.97;;;3.70;;
14892;SDS011;7538;53.626;9.906;2023-03-17T05:28:13;4.50;;;3.63;;
14892;SDS011;7538;53.626;9.906;2023-03-17T05:30:41;6.13;;;3.63;;
14892;SDS011;7538;53.626;9.906;2023-03-17T05:33:09;6.47;;;3.80;;
14892;SDS011;7538;53.626;9.906;2023-03-17T05:35:36;5.13;;;3.37;;
14892;SDS011;7538;53.626;9.906;2023-03-17T05:38:04;4.37;;;3.13;;
14892;SDS011;7538;53.626;9.906;2023-03-17T05:40:32;5.00;;;3.70;;
14892;SDS011;7538;53.626;9.906;2023-03-17T05:42:59;5.43;;;3.67;;
14892;SDS011;7538;53.626;9.906;2023-03-17T05:45:26;7.23;;;4.00;;
14892;SDS011;7538;53.626;9.906;2023-03-17T05:47:54;4.53;;;3.50;;
14892;SDS011;7538;53.626;9.906;2023-03-17T05:50:22;4.13;;;3.07;;
14892;SDS011;7538;53.626;9.906;2023-03-17T05:52:49;4.50;;;3.60;;
14892;SDS011;7538;53.626;9.906;2023-03-17T05:55:16;4.70;;;3.53;;
14892;SDS011;7538;53.626;9.906;2023-03-17T05:57:43;4.23;;;3.40;;
14892;SDS011;7538;53.626;9.906;2023-03-17T06:00:11;4.47;;;3.57;;
14892;SDS011;7538;53.626;9.906;2023-03-17T06:02:40;7.50;;;4.00;;
14892;SDS011;7538;53.626;9.906;2023-03-17T06:05:07;6.03;;;3.80;;
14892;SDS011;7538;53.626;9.906;2023-03-17T06:07:36;4.50;;;3.30;;
14892;SDS011;7538;53.626;9.906;2023-03-17T06:10:03;7.10;;;4.27;;
14892;SDS011;7538;53.626;9.906;2023-03-17T06:12:31;4.17;;;3.17;;
14892;SDS011;7538;53.626;9.906;2023-03-17T06:14:58;4.50;;;3.57;;
14892;SDS011;7538;53.626;9.906;2023-03-17T06:17:25;5.97;;;3.53;;
14892;SDS011;7538;53.626;9.906;2023-03-17T06:19:51;4.73;;;3.80;;
14892;SDS011;7538;53.626;9.906;2023-03-17T06:22:19;4.70;;;3.70;;
14892;SDS011;7538;53.626;9.906;2023-03-17T06:24:47;6.43;;;3.83;;
14892;SDS011;7538;53.626;9.906;2023-03-17T06:27:14;5.67;;;3.63;;
14892;SDS011;7538;53.626;9.906;2023-03-17T06:29:40;4.80;;;3.67;;
14892;SDS011;7538;53.626;9.906;2023-03-17T06:32:07;6.03;;;3.93;;
14892;SDS011;7538;53.626;9.906;2023-03-17T06:34:34;5.43;;;3.37;;
14892;SDS011;7538;53.626;9.906;2023-03-17T06:37:01;5.20;;;3.60;;
14892;SDS011;7538;53.626;9.906;2023-03-17T06:39:29;4.70;;;3.63;;
14892;SDS011;7538;53.626;9.906;2023-03-17T06:41:57;6.57;;;3.93;;
14892;SDS011;7538;53.626;9.906;2023-03-17T06:44:23;7.17;;;4.00;;
14892;SDS011;7538;53.626;9.906;2023-03-17T06:46:50;5.87;;;4.00;;
14892;SDS011;7538;53.626;9.906;2023-03-17T06:49:17;5.93;;;3.80;;
14892;SDS011;7538;53.626;9.906;2023-03-17T06:51:44;5.10;;;3.87;;
14892;SDS011;7538;53.626;9.906;2023-03-17T06:54:10;5.07;;;3.83;;
14892;SDS011;7538;53.626;9.906;2023-03-17T06:56:37;6.73;;;3.63;;
14892;SDS011;7538;53.626;9.906;2023-03-17T06:59:06;5.80;;;3.07;;
14892;SDS011;7538;53.626;9.906;2023-03-17T07:01:32;4.80;;;3.80;;
14892;SDS011;7538;53.626;9.906;2023-03-17T07:03:59;4.83;;;4.10;;
14892;SDS011;7538;53.626;9.906;2023-03-17T07:06:26;7.67;;;3.77;;
14892;SDS011;7538;53.626;9.906;2023-03-17T07:08:53;5.67;;;3.87;;
14892;SDS011;7538;53.626;9.906;2023-03-17T07:11:20;7.75;;;4.03;;
14892;SDS011;7538;53.626;9.906;2023-03-17T07:13:48;5.13;;;3.73;;
14892;SDS011;7538;53.626;9.906;2023-03-17T07:16:17;5.20;;;3.47;;
14892;SDS011;7538;53.626;9.906;2023-03-17T07:18:45;6.30;;;3.83;;
14892;SDS011;7538;53.626;9.906;2023-03-17T07:21:11;7.17;;;4.57;;
14892;SDS011;7538;53.626;9.906;2023-03-17T07:23:39;8.48;;;4.13;;
14892;SDS011;7538;53.626;9.906;2023-03-17T07:26:06;6.60;;;4.03;;
14892;SDS011;7538;53.626;9.906;2023-03-17T07:28:33;5.22;;;3.70;;
14892;SDS011;7538;53.626;9.906;2023-03-17T07:31:00;6.55;;;3.80;;
14892;SDS011;7538;53.626;9.906;2023-03-17T07:33:28;5.10;;;3.80;;
14892;SDS011;7538;53.626;9.906;2023-03-17T07:35:57;4.85;;;3.67;;
14892;SDS011;7538;53.626;9.906;2023-03-17T07:38:24;5.25;;;3.90;;
14892;SDS011;7538;53.626;9.906;2023-03-17T07:40:51;4.45;;;3.70;;
14892;SDS011;7538;53.626;9.906;2023-03-17T07:43:19;6.90;;;4.10;;
14892;SDS011;7538;53.626;9.906;2023-03-17T07:45:46;6.10;;;3.42;;
14892;SDS011;7538;53.626;9.906;2023-03-17T07:48:12;4.43;;;3.85;;
14892;SDS011;7538;53.626;9.906;2023-03-17T07:50:41;5.70;;;3.83;;
14892;SDS011;7538;53.626;9.906;2023-03-17T07:53:08;6.35;;;4.10;;
14892;SDS011;7538;53.626;9.906;2023-03-17T07:55:35;5.53;;;3.88;;
14892;SDS011;7538;53.626;9.906;2023-03-17T07:58:02;6.22;;;4.00;;
14892;SDS011;7538;53.626;9.906;2023-03-17T08:00:29;4.85;;;4.03;;
14892;SDS011;7538;53.626;9.906;2023-03-17T08:02:56;5.82;;;4.00;;
14892;SDS011;7538;53.626;9.906;2023-03-17T08:05:23;4.20;;;3.80;;
14892;SDS011;7538;53.626;9.906;2023-03-17T08:07:52;4.97;;;3.92;;
14892;SDS011;7538;53.626;9.906;2023-03-17T08:10:19;5.40;;;3.88;;
14892;SDS011;7538;53.626;9.906;2023-03-17T08:12:46;5.85;;;4.18;;
14892;SDS011;7538;53.626;9.906;2023-03-17T08:15:15;4.90;;;3.92;;
14892;SDS011;7538;53.626;9.906;2023-03-17T08:17:43;5.30;;;4.28;;
14892;SDS011;7538;53.626;9.906;2023-03-17T08:20:10;5.50;;;3.63;;
14892;SDS011;7538;53.626;9.906;2023-03-17T08:22:38;5.32;;;3.90;;
14892;SDS011;7538;53.626;9.906;2023-03-17T08:25:07;5.28;;;4.10;;
14892;SDS011;7538;53.626;9.906;2023-03-17T08:27:35;4.90;;;3.88;;
14892;SDS011;7538;53.626;9.906;2023-03-17T08:30:02;4.65;;;4.05;;
14892;SDS011;7538;53.626;9.906;2023-03-17T08:32:30;4.78;;;3.90;;
14892;SDS011;7538;53.626;9.906;2023-03-17T08:34:57;4.57;;;3.92;;
14892;SDS011;7538;53.626;9.906;2023-03-17T08:37:24;5.50;;;3.90;;
14892;SDS011;7538;53.626;9.906;2023-03-17T08:39:51;4.88;;;3.60;;
14892;SDS011;7538;53.626;9.906;2023-03-17T08:42:19;4.97;;;3.80;;
14892;SDS011;7538;53.626;9.906;2023-03-17T08:44:47;5.60;;;3.80;;
14892;SDS011;7538;53.626;9.906;2023-03-17T08:47:14;5.53;;;3.67;;
14892;SDS011;7538;53.626;9.906;2023-03-17T08:49:41;5.70;;;4.00;;
14892;SDS011;7538;53.626;9.906;2023-03-17T08:52:08;4.40;;;4.00;;
14892;SDS011;7538;53.626;9.906;2023-03-17T08:54:35;5.25;;;3.75;;
14892;SDS011;7538;53.626;9.906;2023-03-17T08:57:02;4.75;;;3.80;;
14892;SDS011;7538;53.626;9.906;2023-03-17T08:59:30;4.97;;;3.97;;
14892;SDS011;7538;53.626;9.906;2023-03-17T09:01:57;5.45;;;3.75;;
14892;SDS011;7538;53.626;9.906;2023-03-17T09:04:24;6.38;;;3.95;;
14892;SDS011;7538;53.626;9.906;2023-03-17T09:06:52;4.20;;;3.80;;
14892;SDS011;7538;53.626;9.906;2023-03-17T09:09:20;4.43;;;3.67;;
14892;SDS011;7538;53.626;9.906;2023-03-17T09:11:47;4.50;;;3.35;;
14892;SDS011;7538;53.626;9.906;2023-03-17T09:14:14;6.78;;;3.40;;
14892;SDS011;7538;53.626;9.906;2023-03-17T09:16:42;4.95;;;2.92;;
14892;SDS011;7538;53.626;9.906;2023-03-17T09:19:12;8.10;;;3.70;;
14892;SDS011;7538;53.626;9.906;2023-03-17T09:21:40;5.40;;;3.75;;
14892;SDS011;7538;53.626;9.906;2023-03-17T09:24:07;4.82;;;3.63;;
14892;SDS011;7538;53.626;9.906;2023-03-17T09:26:35;5.30;;;3.65;;
14892;SDS011;7538;53.626;9.906;2023-03-17T09:29:02;6.75;;;3.50;;
14892;SDS011;7538;53.626;9.906;2023-03-17T09:31:29;4.22;;;3.40;;
14892;SDS011;7538;53.626;9.906;2023-03-17T09:33:57;7.63;;;3.42;;
14892;SDS011;7538;53.626;9.906;2023-03-17T09:36:24;5.65;;;3.30;;
14892;SDS011;7538;53.626;9.906;2023-03-17T09:38:51;6.28;;;3.55;;
14892;SDS011;7538;53.626;9.906;2023-03-17T09:41:22;5.50;;;2.90;;
14892;SDS011;7538;53.626;9.906;2023-03-17T09:44:01;4.45;;;3.20;;
14892;SDS011;7538;53.626;9.906;2023-03-17T09:46:39;4.68;;;3.05;;
14892;SDS011;7538;53.626;9.906;2023-03-17T09:49:13;5.78;;;3.70;;
14892;SDS011;7538;53.626;9.906;2023-03-17T09:51:44;4.97;;;2.95;;
14892;SDS011;7538;53.626;9.906;2023-03-17T09:54:12;3.78;;;3.22;;
14892;SDS011;7538;53.626;9.906;2023-03-17T09:56:47;4.57;;;3.20;;
14892;SDS011;7538;53.626;9.906;2023-03-17T09:59:26;5.30;;;3.05;;
14892;SDS011;7538;53.626;9.906;2023-03-17T10:01:55;4.07;;;3.03;;
14892;SDS011;7538;53.626;9.906;2023-03-17T10:04:23;4.07;;;3.40;;
14892;SDS011;7538;53.626;9.906;2023-03-17T10:06:51;4.40;;;2.70;;
14892;SDS011;7538;53.626;9.906;2023-03-17T10:09:23;7.07;;;3.90;;
14892;SDS011;7538;53.626;9.906;2023-03-17T10:11:59;3.28;;;2.90;;
14892;SDS011;7538;53.626;9.906;2023-03-17T10:14:37;4.80;;;2.95;;
14892;SDS011;7538;53.626;9.906;2023-03-17T10:17:13;5.10;;;3.13;;
14892;SDS011;7538;53.626;9.906;2023-03-17T10:19:46;6.25;;;3.22;;
14892;SDS011;7538;53.626;9.906;2023-03-17T10:22:20;4.10;;;3.10;;
14892;SDS011;7538;53.626;9.906;2023-03-17T10:24:53;4.60;;;2.90;;
14892;SDS011;7538;53.626;9.906;2023-03-17T10:27:23;3.70;;;3.00;;
14892;SDS011;7538;53.626;9.906;2023-03-17T10:29:51;6.47;;;3.03;;
14892;SDS011;7538;53.626;9.906;2023-03-17T10:32:18;4.30;;;3.20;;
14892;SDS011;7538;53.626;9.906;2023-03-17T10:34:46;3.70;;;3.08;;
14892;SDS011;7538;53.626;9.906;2023-03-17T10:37:14;5.60;;;3.17;;
14892;SDS011;7538;53.626;9.906;2023-03-17T10:39:44;3.40;;;2.70;;
14892;SDS011;7538;53.626;9.906;2023-03-17T10:42:18;3.45;;;2.80;;
14892;SDS011;7538;53.626;9.906;2023-03-17T10:44:48;5.25;;;3.08;;
14892;SDS011;7538;53.626;9.906;2023-03-17T10:47:19;4.72;;;2.70;;
14892;SDS011;7538;53.626;9.906;2023-03-17T10:49:57;3.95;;;3.08;;
14892;SDS011;7538;53.626;9.906;2023-03-17T10:52:28;3.33;;;2.70;;
14892;SDS011;7538;53.626;9.906;2023-03-17T10:55:00;3.17;;;2.88;;
14892;SDS011;7538;53.626;9.906;2023-03-17T10:57:29;6.45;;;3.25;;
14892;SDS011;7538;53.626;9.906;2023-03-17T10:59:56;4.35;;;2.70;;
14892;SDS011;7538;53.626;9.906;2023-03-17T11:02:29;4.38;;;3.15;;
14892;SDS011;7538;53.626;9.906;2023-03-17T11:05:04;4.03;;;3.08;;
14892;SDS011;7538;53.626;9.906;2023-03-17T11:07:34;4.35;;;3.10;;
14892;SDS011;7538;53.626;9.906;2023-03-17T11:10:04;4.13;;;2.88;;
14892;SDS011;7538;53.626;9.906;2023-03-17T11:12:42;3.67;;;2.72;;
14892;SDS011;7538;53.626;9.906;2023-03-17T11:15:10;3.22;;;2.78;;
14892;SDS011;7538;53.626;9.906;2023-03-17T11:17:45;5.07;;;3.08;;
14892;SDS011;7538;53.626;9.906;2023-03-17T11:20:32;3.40;;;2.85;;
14892;SDS011;7538;53.626;9.906;2023-03-17T11:23:09;3.65;;;2.60;;
14892;SDS011;7538;53.626;9.906;2023-03-17T11:25:43;5.75;;;3.08;;
14892;SDS011;7538;53.626;9.906;2023-03-17T11:28:16;4.22;;;2.88;;
14892;SDS011;7538;53.626;9.906;2023-03-17T11:30:46;5.07;;;2.75;;
14892;SDS011;7538;53.626;9.906;2023-03-17T11:33:26;3.05;;;2.55;;
14892;SDS011;7538;53.626;9.906;2023-03-17T11:36:00;5.63;;;2.72;;
14892;SDS011;7538;53.626;9.906;2023-03-17T11:38:36;2.80;;;2.60;;
14892;SDS011;7538;53.626;9.906;2023-03-17T11:41:09;3.45;;;2.60;;
14892;SDS011;7538;53.626;9.906;2023-03-17T11:44:17;4.38;;;2.88;;
14892;SDS011;7538;53.626;9.906;2023-03-17T11:47:01;2.60;;;2.30;;
14892;SDS011;7538;53.626;9.906;2023-03-17T11:49:37;5.20;;;2.53;;
14892;SDS011;7538;53.626;9.906;2023-03-17T11:52:09;4.75;;;2.38;;
14892;SDS011;7538;53.626;9.906;2023-03-17T11:54:47;4.55;;;2.40;;
14892;SDS011;7538;53.626;9.906;2023-03-17T11:57:20;5.07;;;2.65;;
14892;SDS011;7538;53.626;9.906;2023-03-17T11:59:52;3.50;;;2.47;;
14892;SDS011;7538;53.626;9.906;2023-03-17T12:02:24;4.63;;;2.25;;
14892;SDS011;7538;53.626;9.906;2023-03-17T12:04:57;3.03;;;2.35;;
14892;SDS011;7538;53.626;9.906;2023-03-17T12:07:31;3.58;;;2.03;;
14892;SDS011;7538;53.626;9.906;2023-03-17T12:10:02;4.25;;;2.33;;
14892;SDS011;7538;53.626;9.906;2023-03-17T12:12:42;2.92;;;2.35;;
14892;SDS011;7538;53.626;9.906;2023-03-17T12:15:13;2.53;;;2.30;;
14892;SDS011;7538;53.626;9.906;2023-03-17T12:17:45;3.28;;;2.55;;
14892;SDS011;7538;53.626;9.906;2023-03-17T12:20:16;3.38;;;2.60;;
14892;SDS011;7538;53.626;9.906;2023-03-17T12:22:49;3.58;;;2.30;;
14892;SDS011;7538;53.626;9.906;2023-03-17T12:25:22;5.03;;;2.80;;
14892;SDS011;7538;53.626;9.906;2023-03-17T12:27:56;8.65;;;3.53;;
14892;SDS011;7538;53.626;9.906;2023-03-17T12:30:27;3.90;;;3.15;;
14892;SDS011;7538;53.626;9.906;2023-03-17T12:32:59;4.68;;;3.20;;
14892;SDS011;7538;53.626;9.906;2023-03-17T12:35:34;3.72;;;2.53;;
14892;SDS011;7538;53.626;9.906;2023-03-17T12:38:05;4.55;;;3.08;;
14892;SDS011;7538;53.626;9.906;2023-03-17T12:40:37;6.50;;;3.13;;
14892;SDS011;7538;53.626;9.906;2023-03-17T12:43:30;4.30;;;2.80;;
14892;SDS011;7538;53.626;9.906;2023-03-17T12:46:14;4.22;;;2.72;;
14892;SDS011;7538;53.626;9.906;2023-03-17T12:52:06;2.72;;;2.38;;
14892;SDS011;7538;53.626;9.906;2023-03-17T12:54:44;3.00;;;2.33;;
14892;SDS011;7538;53.626;9.906;2023-03-17T12:57:16;4.90;;;2.80;;
14892;SDS011;7538;53.626;9.906;2023-03-17T12:59:45;2.85;;;2.40;;
14892;SDS011;7538;53.626;9.906;2023-03-17T13:02:16;8.13;;;3.28;;
14892;SDS011;7538;53.626;9.906;2023-03-17T13:04:49;5.55;;;3.08;;
14892;SDS011;7538;53.626;9.906;2023-03-17T13:07:22;4.45;;;2.67;;
14892;SDS011;7538;53.626;9.906;2023-03-17T13:15:47;3.13;;;2.70;;
14892;SDS011;7538;53.626;9.906;2023-03-17T13:21:13;4.15;;;2.50;;
14892;SDS011;7538;53.626;9.906;2023-03-17T13:23:43;4.13;;;3.10;;
14892;SDS011;7538;53.626;9.906;2023-03-17T13:26:13;3.55;;;2.63;;
14892;SDS011;7538;53.626;9.906;2023-03-17T13:28:43;3.28;;;2.90;;
14892;SDS011;7538;53.626;9.906;2023-03-17T13:31:30;6.63;;;2.83;;
14892;SDS011;7538;53.626;9.906;2023-03-17T13:34:01;5.05;;;2.47;;
14892;SDS011;7538;53.626;9.906;2023-03-17T13:36:37;3.40;;;3.10;;
14892;SDS011;7538;53.626;9.906;2023-03-17T13:42:17;3.20;;;2.33;;
14892;SDS011;7538;53.626;9.906;2023-03-17T13:45:06;3.17;;;2.67;;
14892;SDS011;7538;53.626;9.906;2023-03-17T13:47:40;3.28;;;2.20;;
14892;SDS011;7538;53.626;9.906;2023-03-17T13:50:11;4.00;;;2.25;;
14892;SDS011;7538;53.626;9.906;2023-03-17T13:52:40;3.65;;;2.90;;
14892;SDS011;7538;53.626;9.906;2023-03-17T13:55:31;4.32;;;2.50;;
14892;SDS011;7538;53.626;9.906;2023-03-17T14:01:01;3.60;;;2.53;;
14892;SDS011;7538;53.626;9.906;2023-03-17T14:03:39;4.05;;;2.20;;
14892;SDS011;7538;53.626;9.906;2023-03-17T14:06:09;8.43;;;2.50;;
14892;SDS011;7538;53.626;9.906;2023-03-17T14:08:40;2.97;;;2.03;;
14892;SDS011;7538;53.626;9.906;2023-03-17T14:11:15;5.18;;;2.20;;
14892;SDS011;7538;53.626;9.906;2023-03-17T14:13:51;3.15;;;2.45;;
14892;SDS011;7538;53.626;9.906;2023-03-17T14:16:23;4.72;;;2.10;;
14892;SDS011;7538;53.626;9.906;2023-03-17T14:18:56;2.80;;;1.70;;
14892;SDS011;7538;53.626;9.906;2023-03-17T14:21:29;2.53;;;1.98;;
14892;SDS011;7538;53.626;9.906;2023-03-17T14:23:57;2.47;;;1.70;;
14892;SDS011;7538;53.626;9.906;2023-03-17T14:26:26;2.72;;;1.60;;
14892;SDS011;7538;53.626;9.906;2023-03-17T14:28:56;2.92;;;2.20;;
14892;SDS011;7538;53.626;9.906;2023-03-17T14:31:25;2.40;;;1.80;;
14892;SDS011;7538;53.626;9.906;2023-03-17T14:33:53;3.70;;;1.83;;
14892;SDS011;7538;53.626;9.906;2023-03-17T14:36:22;2.67;;;2.00;;
14892;SDS011;7538;53.626;9.906;2023-03-17T14:38:50;4.30;;;2.53;;
14892;SDS011;7538;53.626;9.906;2023-03-17T14:41:19;4.32;;;2.60;;
14892;SDS011;7538;53.626;9.906;2023-03-17T14:43:48;2.80;;;2.13;;
14892;SDS011;7538;53.626;9.906;2023-03-17T14:46:19;2.40;;;2.00;;
14892;SDS011;7538;53.626;9.906;2023-03-17T14:48:48;2.08;;;1.70;;
14892;SDS011;7538;53.626;9.906;2023-03-17T14:51:21;5.40;;;2.78;;
14892;SDS011;7538;53.626;9.906;2023-03-17T14:53:50;2.38;;;1.95;;
14892;SDS011;7538;53.626;9.906;2023-03-17T14:56:20;3.10;;;1.90;;
14892;SDS011;7538;53.626;9.906;2023-03-17T14:58:49;1.85;;;1.60;;
14892;SDS011;7538;53.626;9.906;2023-03-17T15:01:19;3.47;;;2.05;;
14892;SDS011;7538;53.626;9.906;2023-03-17T15:03:52;2.40;;;1.60;;
14892;SDS011;7538;53.626;9.906;2023-03-17T15:06:22;2.97;;;1.90;;
14892;SDS011;7538;53.626;9.906;2023-03-17T15:08:50;2.25;;;1.90;;
14892;SDS011;7538;53.626;9.906;2023-03-17T15:11:21;4.10;;;2.03;;
14892;SDS011;7538;53.626;9.906;2023-03-17T15:13:52;2.78;;;1.90;;
14892;SDS011;7538;53.626;9.906;2023-03-17T15:16:24;3.78;;;1.73;;
14892;SDS011;7538;53.626;9.906;2023-03-17T15:18:56;2.22;;;1.80;;
14892;SDS011;7538;53.626;9.906;2023-03-17T15:21:31;3.05;;;1.90;;
14892;SDS011;7538;53.626;9.906;2023-03-17T15:24:18;3.17;;;2.17;;
14892;SDS011;7538;53.626;9.906;2023-03-17T15:26:49;6.72;;;2.05;;
14892;SDS011;7538;53.626;9.906;2023-03-17T15:29:23;5.25;;;2.15;;
14892;SDS011;7538;53.626;9.906;2023-03-17T15:31:51;3.30;;;1.80;;
14892;SDS011;7538;53.626;9.906;2023-03-17T15:34:18;4.18;;;1.85;;
14892;SDS011;7538;53.626;9.906;2023-03-17T15:36:44;2.50;;;1.60;;
14892;SDS011;7538;53.626;9.906;2023-03-17T15:39:11;2.58;;;1.67;;